Weather observations for the past three days for
Le Mars Municipal Airport
Imperial (Metric)
Date Time (cdt) Wind (mph) Vis. (mi.) Weather Sky Cond. Temperature (ºF) Relative Humidity Wind Chill (°F) Heat Index (°F) Pressure Precipitation (in)
Air Dwpt 6 hour altimeter (in) sea level (mb) 1 hr 3 hr 6 hr
Max. Min.
06 07:35 Calm 10.00 Fair CLR 33.8 26.6 75% 30.06 0.0
06 06:55 Calm 10.00 Fair CLR 30.2 30.2 100% 30.04 0.0
06 06:35 S 5 10.00 Fair CLR 30.2 30.2 100% 26 30.04 0.0
06 06:15 Calm 10.00 Fair CLR 28.4 28.4 100% 30.03 0.0
06 05:55 Calm 10.00 Fair CLR 28.4 28.4 100% 30.02 0.0
06 05:35 S 3 10.00 Fair CLR 30.2 30.2 100% 30.01 0.0
06 05:15 Calm 10.00 Fair CLR 30.2 30.2 100% 30.01 0.0
06 04:55 S 3 10.00 Fair CLR 30.2 30.2 100% 30.01 0.0
06 04:35 Calm 10.00 Fair CLR 32 28.4 87% 30 0.0
06 04:15 Calm 10.00 Fair CLR 30.2 30.2 100% 30.01 0.0
06 03:55 Calm 10.00 Fair CLR 32 28.4 87% 30 0.0
06 03:35 Calm 10.00 Fair CLR 32 26.6 80% 30 0.0
06 03:15 Calm 10.00 Fair CLR 32 26.6 80% 29.99 0.0
06 02:55 SW 3 10.00 Fair CLR 33.8 26.6 75% 29.99 0.0
06 02:35 NE 3 10.00 Fair CLR 35.6 23 60% 29.98 0.0
06 02:15 Vrbl 3 10.00 Fair CLR 37.4 23 56% 29.99 0.0
06 01:55 NW 3 10.00 Fair CLR 37.4 23 56% 29.99 0.0
06 01:35 Calm 10.00 Fair CLR 35.6 24.8 65% 29.99 0.0
06 01:15 Calm 10.00 Fair CLR 39.2 23 52% 29.99 0.0
06 00:55 NW 6 10.00 Fair CLR 39.2 23 52% 36 29.98 0.0
06 00:35 N 7 10.00 Fair CLR 39.2 23 52% 35 29.97 0.0
06 00:15 N 6 10.00 Fair CLR 39.2 21.2 48% 36 29.97 0.0
05 23:55 N 6 10.00 Fair CLR 39.2 21.2 48% 36 29.96 0.0
05 23:35 N 7 10.00 Fair CLR 39.2 21.2 48% 35 29.96 0.0
05 23:15 NW 6 10.00 Fair CLR 41 21.2 45% 38 29.97 0.0
05 22:55 NW 6 10.00 Fair CLR 41 21.2 45% 38 29.97 0.0
05 22:35 NW 5 10.00 Fair CLR 42.8 21.2 42% 41 29.97 0.0
05 22:15 N 7 10.00 Fair CLR 42.8 21.2 42% 39 29.96 0.0
05 21:55 N 6 10.00 Fair CLR 44.6 21.2 39% 42 29.95 0.0
05 21:35 NW 6 10.00 A Few Clouds FEW070 FEW080 44.6 21.2 39% 42 29.95 0.0
05 21:15 NW 6 10.00 A Few Clouds FEW080 46.4 19.4 34% 44 29.93 0.0
05 20:55 N 6 G 13 10.00 Partly Cloudy SCT080 48.2 19.4 32% 46 29.93 0.0
05 20:35 NW 9 10.00 Fair CLR 48.2 19.4 32% 45 29.92 0.0
05 20:15 NW 10 G 17 10.00 A Few Clouds FEW080 50 17.6 28% 46 29.92 0.0
05 19:55 N 14 G 21 10.00 A Few Clouds FEW080 50 19.4 30% 45 29.91 0.0
05 19:35 NW 15 10.00 Partly Cloudy SCT080 51.8 19.4 28% 29.91 0.0
05 19:15 NW 16 10.00 Partly Cloudy SCT080 51.8 17.6 26% 29.9 0.0
05 18:55 N 15 10.00 A Few Clouds FEW080 51.8 17.6 26% 29.89 0.0
05 18:35 NW 16 10.00 Mostly Cloudy BKN080 53.6 17.6 24% 29.89 0.0
05 18:15 NW 17 G 24 10.00 Mostly Cloudy BKN080 53.6 17.6 24% 29.89 0.0
05 17:55 NW 14 G 23 10.00 Fair CLR 53.6 17.6 24% 29.88 0.0
05 17:35 NW 18 G 24 10.00 Fair CLR 53.6 17.6 24% 29.88 0.0
05 17:15 NW 13 G 26 10.00 A Few Clouds FEW075 53.6 17.6 24% 29.88 0.0
05 16:55 NW 13 G 22 10.00 A Few Clouds FEW075 51.8 17.6 26% 29.89 0.0
05 16:35 NW 17 G 25 10.00 A Few Clouds FEW070 53.6 19.4 26% 29.89 0.0
05 16:15 NW 18 10.00 Mostly Cloudy BKN070 55.4 19.4 24% 29.89 0.0
05 15:55 NW 13 G 23 10.00 Partly Cloudy SCT070 53.6 21.2 28% 29.89 0.0
05 15:35 NW 22 G 29 10.00 A Few Clouds and Breezy FEW070 53.6 19.4 26% 29.9 0.0
05 15:15 NW 18 G 29 10.00 Partly Cloudy SCT070 53.6 19.4 26% 29.91 0.0
05 14:55 W 17 G 24 10.00 Mostly Cloudy BKN070 53.6 19.4 26% 29.91 0.0
05 14:35 NW 18 G 25 10.00 Mostly Cloudy BKN070 53.6 21.2 28% 29.91 0.0
05 14:15 NW 14 G 25 10.00 Mostly Cloudy BKN070 51.8 21.2 30% 29.91 0.0
05 13:55 NW 18 G 30 10.00 Mostly Cloudy BKN065 51.8 21.2 30% 29.91 0.0
05 13:35 W 17 G 24 10.00 Overcast OVC070 51.8 21.2 30% 29.91 0.0
05 13:15 NW 17 G 29 10.00 Mostly Cloudy BKN070 51.8 21.2 30% 29.92 0.0
05 12:55 NW 18 G 30 10.00 Mostly Cloudy BKN070 53.6 21.2 28% 29.91 0.0
05 12:35 NW 17 G 29 10.00 Mostly Cloudy BKN065 BKN080 51.8 21.2 30% 29.91 0.0
05 11:55 NW 16 G 23 10.00 Partly Cloudy SCT065 50 21.2 32% 45 29.92 0.0
05 11:35 NW 16 10.00 A Few Clouds FEW065 50 21.2 32% 45 29.91 0.0
05 11:15 NW 12 G 22 10.00 Fair CLR 50 21.2 32% 46 29.91 0.0
05 10:55 NW 12 G 21 10.00 Fair CLR 48.2 21.2 34% 44 29.91 0.0
05 10:35 NW 13 10.00 Fair CLR 48.2 24.8 40% 43 29.92 0.0
05 10:15 NW 8 G 15 10.00 Fair CLR 48.2 26.6 43% 45 29.92 0.0
05 09:55 NW 9 10.00 Fair CLR 48.2 26.6 43% 45 29.91 0.0
05 09:35 NW 8 10.00 Fair CLR 46.4 26.6 46% 43 29.91 0.0
05 09:15 NW 8 10.00 Fair CLR 46.4 26.6 46% 43 29.9 0.0
05 08:55 Vrbl 7 10.00 Fair CLR 44.6 26.6 49% 41 29.9 0.0
05 08:35 NW 10 10.00 Fair CLR 44.6 28.4 53% 40 29.89 0.0
05 08:15 NW 6 10.00 Fair CLR 44.6 30.2 57% 42 29.88 0.0
05 07:35 Calm 10.00 Fair CLR 39.2 33.8 81% 29.87 0.0
05 07:15 Calm 10.00 Fair CLR 37.4 35.6 93% 29.87 0.0
05 06:55 Calm 10.00 Fair CLR 35.6 30.2 81% 29.86 0.0
05 06:15 Calm 10.00 Fair CLR 37.4 28.4 70% 29.84 0.0
05 05:55 Calm 10.00 Fair CLR 39.2 28.4 65% 29.84 0.0
05 05:35 N 6 10.00 Fair CLR 39.2 28.4 65% 36 29.83 0.0
05 05:15 N 5 10.00 Fair CLR 39.2 28.4 65% 36 29.82 0.0
05 04:55 N 5 10.00 Fair CLR 39.2 28.4 65% 36 29.82 0.0
05 04:35 N 8 10.00 Fair CLR 39.2 28.4 65% 34 29.81 0.0
05 04:15 NW 7 10.00 Fair CLR 41 28.4 61% 37 29.81 0.0
05 03:55 NW 7 10.00 Fair CLR 41 28.4 61% 37 29.81 0.0
05 03:35 NW 5 10.00 Fair CLR 41 28.4 61% 38 29.8 0.0
05 03:15 NW 7 10.00 Fair CLR 42.8 28.4 57% 39 29.8 0.0
05 02:55 NW 5 10.00 Fair CLR 42.8 28.4 57% 41 29.79 0.0
05 02:35 NW 5 10.00 Fair CLR 42.8 28.4 57% 41 29.8 0.0
05 02:15 Calm 10.00 Fair CLR 44.6 30.2 57% 29.79 0.0
05 01:55 Calm 10.00 Fair CLR 44.6 30.2 57% 29.79 0.0
05 01:35 Calm 10.00 Fair CLR 46.4 30.2 53% 29.79 0.0
05 01:15 NW 3 10.00 Fair CLR 48.2 30.2 50% 29.79 0.0
05 00:55 NW 5 10.00 Fair CLR 48.2 30.2 50% 47 29.79 0.0
05 00:35 NW 6 10.00 Partly Cloudy SCT120 48.2 30.2 50% 46 29.78 0.0
05 00:15 NW 6 10.00 A Few Clouds FEW120 48.2 30.2 50% 46 29.79 0.0
04 23:55 NW 5 10.00 Fair CLR 48.2 30.2 50% 47 29.79 0.0
04 23:35 Calm 10.00 Fair CLR 48.2 30.2 50% 29.78 0.0
04 23:15 NW 5 10.00 Fair CLR 50 28.4 43% 49 29.79 0.0
04 22:55 NW 3 10.00 Fair CLR 50 28.4 43% 29.79 0.0
04 22:35 Calm 10.00 Fair CLR 50 28.4 43% 29.79 0.0
04 22:15 NW 6 10.00 Fair CLR 50 28.4 43% 48 29.79 0.0
04 21:55 NW 5 10.00 Fair CLR 51.8 28.4 41% 29.79 0.0
04 21:35 NW 5 10.00 Fair CLR 51.8 28.4 41% 29.77 0.0
04 21:15 NW 6 10.00 Fair CLR 51.8 26.6 38% 29.77 0.0
04 20:55 NW 6 10.00 Fair CLR 53.6 26.6 35% 29.77 0.0
04 20:35 NW 10 10.00 Fair CLR 53.6 26.6 35% 29.77 0.0
04 20:15 NW 12 G 18 10.00 Fair CLR 55.4 26.6 33% 29.76 0.0
04 19:55 NW 13 G 21 10.00 Fair CLR 55.4 26.6 33% 29.76 0.0
04 19:35 NW 14 G 23 10.00 Partly Cloudy SCT110 55.4 26.6 33% 29.76 0.0
04 19:15 NW 20 G 28 10.00 Overcast FEW075 OVC110 57.2 26.6 31% 29.74 0.0
04 18:55 NW 15 10.00 Mostly Cloudy FEW075 BKN110 57.2 28.4 33% 29.73 0.0
04 18:35 NW 16 G 24 10.00 Mostly Cloudy FEW065 FEW075 BKN100 57.2 28.4 33% 29.73 0.0
04 18:15 NW 10 G 23 10.00 Mostly Cloudy FEW050 BKN065 BKN075 55.4 30.2 38% 29.72 0.0
04 17:55 NW 17 G 26 10.00 Mostly Cloudy FEW050 FEW060 BKN100 57.2 28.4 33% 29.72 0.0
04 17:35 NW 17 G 28 10.00 Mostly Cloudy FEW070 FEW080 BKN110 57.2 30.2 36% 29.72 0.0
04 17:15 N 18 G 26 10.00 Mostly Cloudy FEW070 SCT080 BKN120 59 30.2 34% 29.7 0.0
04 16:55 NW 20 G 33 10.00 Partly Cloudy SCT120 59 30.2 34% 29.71 0.0
04 16:35 NW 22 G 33 10.00 Partly Cloudy and Breezy SCT120 64.4 30.2 28% 29.69 0.0
04 16:15 NW 14 G 31 10.00 A Few Clouds FEW120 64.4 30.2 28% 29.68 0.0
04 15:55 NW 17 G 29 10.00 Fair CLR 68 30.2 24% 29.67 0.0
04 15:35 NW 21 G 32 10.00 Fair and Breezy CLR 68 30.2 24% 29.66 0.0
04 15:15 NW 22 G 28 10.00 Fair and Breezy CLR 69.8 32 25% 29.65 0.0
04 14:55 NW 23 G 33 10.00 Fair and Breezy CLR 68 30.2 24% 29.65 0.0
04 14:35 NW 20 G 29 10.00 Fair CLR 69.8 30.2 23% 29.64 0.0
04 14:15 NW 22 G 28 10.00 Fair and Breezy CLR 69.8 30.2 23% 29.64 0.0
04 13:55 NW 17 G 25 10.00 Fair CLR 69.8 30.2 23% 29.64 0.0
04 13:35 NW 17 G 29 10.00 Fair CLR 69.8 32 25% 29.63 0.0
04 13:15 NW 21 10.00 Fair and Breezy CLR 69.8 32 25% 29.63 0.0
04 12:55 NW 20 G 25 10.00 Fair CLR 69.8 32 25% 29.62 0.0
04 12:35 N 15 G 29 10.00 Fair CLR 69.8 32 25% 29.62 0.0
04 12:15 N 15 G 22 10.00 Fair CLR 69.8 32 25% 29.62 0.0
04 11:55 N 15 10.00 Fair CLR 69.8 32 25% 29.62 0.0
04 11:35 N 15 G 25 10.00 Fair CLR 69.8 32 25% 29.61 0.0
04 11:15 N 13 G 21 10.00 Fair CLR 68 39.2 35% 29.59 0.0
04 10:55 N 20 10.00 Fair CLR 66.2 39.2 37% 29.58 0.0
04 10:35 N 14 G 23 10.00 Fair CLR 66.2 41 40% 29.58 0.0
04 10:15 NW 16 G 22 10.00 Fair CLR 66.2 42.8 43% 29.58 0.0
04 09:55 NW 15 G 26 10.00 Fair CLR 64.4 42.8 46% 29.57 0.0
04 09:35 NW 17 G 28 10.00 Fair CLR 66.2 42.8 43% 29.56 0.0
04 09:15 NW 17 G 24 10.00 Fair CLR 64.4 41 43% 29.56 0.0
04 08:55 W 15 10.00 Fair CLR 64.4 41 43% 29.55 0.0
04 08:35 SW 9 10.00 Fair CLR 62.6 41 45% 29.55 0.0
04 08:15 S 6 10.00 Fair CLR 59 42.8 55% 29.54 0.0
04 07:55 S 6 10.00 Fair CLR 55.4 41 59% 29.54 0.0
04 07:35 S 6 10.00 Fair CLR 51.8 41 67% 29.55 0.0
04 07:15 S 5 10.00 Fair CLR 48.2 41 76% 47 29.55 0.0
04 06:55 S 9 10.00 Fair CLR 46.4 39.2 76% 42 29.55 0.0
04 06:35 S 9 10.00 Fair CLR 46.4 39.2 76% 42 29.56 0.0
04 06:15 S 6 10.00 Fair CLR 48.2 39.2 71% 46 29.56 0.0
04 05:55 S 5 10.00 Fair CLR 50 39.2 67% 49 29.57 0.0
04 05:35 S 5 10.00 Fair CLR 50 39.2 67% 49 29.57 0.0
04 05:15 S 5 10.00 Mostly Cloudy BKN110 48.2 39.2 71% 47 29.57 0.0
04 04:55 S 5 10.00 Overcast OVC110 51.8 39.2 62% 29.58 0.0
04 04:35 Calm 10.00 Overcast OVC100 48.2 39.2 71% 29.58 0.0
04 04:15 S 6 10.00 Overcast OVC110 48.2 41 76% 46 29.59 0.0
04 03:55 S 3 10.00 Mostly Cloudy BKN110 46.4 41 82% 29.6 0.0
04 03:35 S 6 10.00 A Few Clouds FEW110 46.4 39.2 76% 44 29.6 0.0
04 03:15 Calm 10.00 Fair CLR 48.2 41 76% 29.61 0.0
04 02:55 S 6 10.00 Mostly Cloudy BKN100 48.2 41 76% 46 29.61 0.0
04 02:35 S 5 10.00 Mostly Cloudy BKN100 46.4 42.8 87% 45 29.62 0.0
04 02:15 Calm 10.00 Fair CLR 48.2 39.2 71% 29.62 0.0
04 01:55 Calm 10.00 Fair CLR 50 39.2 67% 29.64 0.0
04 01:35 S 7 10.00 Fair CLR 50 39.2 67% 48 29.65 0.0
04 01:15 Calm 10.00 Fair CLR 48.2 39.2 71% 29.66 0.0
04 00:55 S 3 10.00 Fair CLR 51.8 39.2 62% 29.66 0.0
04 00:35 Calm 10.00 Fair CLR 51.8 39.2 62% 29.67 0.0
04 00:15 S 3 10.00 Fair CLR 50 37.4 62% 29.67 0.0
03 23:55 Calm 10.00 Fair CLR 53.6 37.4 54% 29.68 0.0
03 23:35 Calm 10.00 Fair CLR 53.6 37.4 54% 29.69 0.0
03 23:15 S 3 10.00 Fair CLR 53.6 37.4 54% 29.69 0.0
03 22:55 S 3 10.00 Fair CLR 53.6 39.2 58% 29.71 0.0
03 22:35 Calm 10.00 Fair CLR 53.6 39.2 58% 29.71 0.0
03 22:15 Calm 10.00 Fair CLR 55.4 37.4 51% 29.71 0.0
03 21:55 Calm 10.00 Fair CLR 55.4 37.4 51% 29.71 0.0
03 21:35 Calm 10.00 Fair CLR 57.2 37.4 48% 29.71 0.0
03 21:15 Calm 10.00 Fair CLR 59 37.4 45% 29.72 0.0
03 20:55 S 5 10.00 Fair CLR 62.6 35.6 37% 29.72 0.0
03 20:35 S 3 10.00 Fair CLR 64.4 35.6 34% 29.72 0.0
03 20:15 SW 3 10.00 Fair CLR 66.2 33.8 30% 29.73 0.0
03 19:55 SW 6 10.00 Fair CLR 69.8 32 25% 29.73 0.0
03 19:35 W 6 10.00 Fair CLR 69.8 32 25% 29.74 0.0
03 19:15 W 6 10.00 Fair CLR 71.6 32 23% 29.74 0.0
03 18:55 W 7 G 14 10.00 Fair CLR 71.6 32 23% 29.74 0.0
03 18:35 W 12 10.00 Fair CLR 71.6 33.8 25% 29.75 0.0
03 18:15 W 12 10.00 Fair CLR 73.4 33.8 23% 29.75 0.0
03 17:55 NW 9 G 15 10.00 Fair CLR 73.4 32 22% 29.75 0.0
03 17:35 Vrbl 6 G 16 10.00 Fair CLR 73.4 32 22% 29.76 0.0
03 17:15 NW 12 G 17 10.00 Fair CLR 73.4 32 22% 29.76 0.0
03 16:55 W 13 10.00 Fair CLR 73.4 32 22% 29.76 0.0
03 16:35 Vrbl 7 G 18 10.00 Fair CLR 73.4 33.8 23% 29.77 0.0
03 16:15 W 10 G 17 10.00 Fair CLR 73.4 33.8 23% 29.77 0.0
03 15:55 N 9 G 16 10.00 Fair CLR 73.4 33.8 23% 29.78 0.0
03 15:35 NW 10 G 16 10.00 Fair CLR 73.4 33.8 23% 29.79 0.0
03 15:15 N 9 G 20 10.00 Fair CLR 73.4 33.8 23% 29.8 0.0
03 14:55 NW 14 10.00 Fair CLR 71.6 32 23% 29.81 0.0
03 14:35 NW 13 10.00 Fair CLR 71.6 33.8 25% 29.81 0.0
03 14:15 N 12 10.00 Fair CLR 71.6 32 23% 29.82 0.0
03 13:55 W 8 G 20 10.00 Fair CLR 69.8 33.8 27% 29.82 0.0
03 13:35 NW 15 G 21 10.00 Fair CLR 71.6 33.8 25% 29.83 0.0
03 13:15 NW 17 G 24 10.00 Fair CLR 71.6 33.8 25% 29.84 0.0
03 12:55 N 15 G 25 10.00 Fair CLR 69.8 33.8 27% 29.84 0.0
03 12:35 NW 14 G 25 10.00 Fair CLR 69.8 33.8 27% 29.85 0.0
03 12:15 N 17 G 24 10.00 Fair CLR 69.8 33.8 27% 29.84 0.0
03 11:55 N 16 G 30 10.00 Fair CLR 68 33.8 28% 29.84 0.0
03 11:35 N 20 10.00 Fair CLR 68 33.8 28% 29.84 0.0
03 11:15 N 17 G 26 10.00 Fair CLR 68 35.6 30% 29.84 0.0
03 10:55 N 18 G 29 10.00 Fair CLR 66.2 33.8 30% 29.84 0.0
03 10:35 N 21 10.00 Fair and Breezy CLR 68 35.6 30% 29.83 0.0
03 10:15 N 17 10.00 Fair CLR 66.2 35.6 32% 29.84 0.0
03 09:55 N 18 10.00 Fair CLR 64.4 37.4 37% 29.85 0.0
03 09:35 N 12 G 21 10.00 Fair CLR 62.6 37.4 39% 29.85 0.0
03 09:15 N 14 10.00 Fair CLR 60.8 37.4 42% 29.85 0.0
03 08:55 N 13 10.00 Fair CLR 60.8 37.4 42% 29.84 0.0
03 08:35 N 13 10.00 Fair CLR 57.2 37.4 48% 29.84 0.0
03 08:15 NW 9 G 17 10.00 Fair CLR 57.2 37.4 48% 29.83 0.0
03 07:55 NW 10 G 16 10.00 Fair CLR 55.4 37.4 51% 29.83 0.0
Date Time (cdt) Wind (mph) Vis. (mi.) Weather Sky Cond. Air Dwpt Max. Min. Relative Humidity Wind Chill (°F) Heat Index (°F) altimeter (in) sea level (mb) 1 hr 3 hr 6 hr
6 hour
Temperature (ºF) Pressure Precipitation (in)